This is the latest recevied weather packets stored in our database for station/object OE6ACM-14. If no packets are shown the sender has not sent any weather packets the latest 10 day(s).
| Time | Temp. | Humidity | Pressure | Rain* | Wind** | Luminosity | Snow |
|---|---|---|---|---|---|---|---|
| 1787900724 | 31.11° C | 46% | 928.6 hPa | - | - | - | - |
| 1787900424 | 29.44° C | 50% | 928.6 hPa | - | - | - | - |
| 1787900124 | 28.89° C | 56% | 928.6 hPa | - | - | - | - |
| 1787899824 | 25° C | 69% | 928.7 hPa | - | - | - | - |
| 1787899524 | 20° C | 77% | 928.8 hPa | - | - | - | - |
| 1787899224 | 19.44° C | 79% | 928.9 hPa | - | - | - | - |
| 1787898924 | 18.89° C | 79% | 928.9 hPa | - | - | - | - |
| 1787898624 | 18.33° C | 79% | 928.9 hPa | - | - | - | - |
| 1787898324 | 17.78° C | 78% | 929 hPa | - | - | - | - |
| 1787898024 | 18.33° C | 77% | 929 hPa | - | - | - | - |
| 1787897724 | 18.33° C | 79% | 929 hPa | - | - | - | - |
| 1787897424 | 17.78° C | 79% | 929 hPa | - | - | - | - |
| 1787897124 | 18.33° C | 82% | 929 hPa | - | - | - | - |
| 1787896824 | 17.78° C | 82% | 929 hPa | - | - | - | - |
| 1787896524 | 17.22° C | 83% | 929.1 hPa | - | - | - | - |
| 1787896224 | 16.67° C | 82% | 929 hPa | - | - | - | - |
| 1787895924 | 16.67° C | 82% | 928.8 hPa | - | - | - | - |
| 1787895624 | 16.67° C | 85% | 928.7 hPa | - | - | - | - |
| 1787895324 | 16.67° C | 87% | 928.7 hPa | - | - | - | - |
| 1787895024 | 16.11° C | 86% | 928.7 hPa | - | - | - | - |
| 1787894724 | 16.11° C | 86% | 928.6 hPa | - | - | - | - |
| 1787894424 | 15.56° C | 86% | 928.5 hPa | - | - | - | - |
| 1787894124 | 15.56° C | 87% | 928.6 hPa | - | - | - | - |
| 1787893824 | 15.56° C | 87% | 928.7 hPa | - | - | - | - |
| 1787893524 | 15.56° C | 88% | 928.6 hPa | - | - | - | - |
* Rain since midnight (hover to see other rain measurements)
** Current wind speed in m/s (hover to see current wind gust speed)